sensor_id;sensor_type;location;lat;lon;timestamp;P1;durP1;ratioP1;P2;durP2;ratioP2
5871;SDS011;2962;51.312;7.378;2022-10-31T00:00:17;17.83;;;8.47;;
5871;SDS011;2962;51.312;7.378;2022-10-31T00:02:42;15.17;;;8.50;;
5871;SDS011;2962;51.312;7.378;2022-10-31T00:05:07;18.73;;;8.00;;
5871;SDS011;2962;51.312;7.378;2022-10-31T00:07:33;13.07;;;7.73;;
5871;SDS011;2962;51.312;7.378;2022-10-31T00:09:58;14.70;;;7.93;;
5871;SDS011;2962;51.312;7.378;2022-10-31T00:12:23;12.47;;;8.60;;
5871;SDS011;2962;51.312;7.378;2022-10-31T00:14:48;16.30;;;9.60;;
5871;SDS011;2962;51.312;7.378;2022-10-31T00:17:14;18.80;;;7.50;;
5871;SDS011;2962;51.312;7.378;2022-10-31T00:19:39;16.67;;;8.10;;
5871;SDS011;2962;51.312;7.378;2022-10-31T00:22:04;15.63;;;7.17;;
5871;SDS011;2962;51.312;7.378;2022-10-31T00:24:29;11.53;;;7.30;;
5871;SDS011;2962;51.312;7.378;2022-10-31T00:26:55;16.27;;;7.33;;
5871;SDS011;2962;51.312;7.378;2022-10-31T00:29:20;11.00;;;7.67;;
5871;SDS011;2962;51.312;7.378;2022-10-31T00:31:45;11.50;;;7.50;;
5871;SDS011;2962;51.312;7.378;2022-10-31T00:34:11;22.97;;;6.40;;
5871;SDS011;2962;51.312;7.378;2022-10-31T00:36:36;12.70;;;6.60;;
5871;SDS011;2962;51.312;7.378;2022-10-31T00:39:01;13.07;;;6.67;;
5871;SDS011;2962;51.312;7.378;2022-10-31T00:41:27;18.60;;;7.17;;
5871;SDS011;2962;51.312;7.378;2022-10-31T00:43:52;10.50;;;7.00;;
5871;SDS011;2962;51.312;7.378;2022-10-31T00:46:17;19.47;;;8.27;;
5871;SDS011;2962;51.312;7.378;2022-10-31T00:48:42;14.97;;;7.70;;
5871;SDS011;2962;51.312;7.378;2022-10-31T00:51:08;14.27;;;7.60;;
5871;SDS011;2962;51.312;7.378;2022-10-31T00:53:33;13.90;;;6.63;;
5871;SDS011;2962;51.312;7.378;2022-10-31T00:55:59;13.83;;;7.03;;
5871;SDS011;2962;51.312;7.378;2022-10-31T00:58:24;17.27;;;7.40;;
5871;SDS011;2962;51.312;7.378;2022-10-31T01:00:53;19.37;;;7.60;;
5871;SDS011;2962;51.312;7.378;2022-10-31T01:03:22;11.57;;;8.20;;
5871;SDS011;2962;51.312;7.378;2022-10-31T01:06:09;16.90;;;8.70;;
5871;SDS011;2962;51.312;7.378;2022-10-31T01:08:36;17.77;;;8.73;;
5871;SDS011;2962;51.312;7.378;2022-10-31T01:11:10;12.13;;;7.70;;
5871;SDS011;2962;51.312;7.378;2022-10-31T01:13:38;11.37;;;7.77;;
5871;SDS011;2962;51.312;7.378;2022-10-31T01:16:05;14.17;;;8.63;;
5871;SDS011;2962;51.312;7.378;2022-10-31T01:18:32;15.50;;;7.80;;
5871;SDS011;2962;51.312;7.378;2022-10-31T01:21:08;14.50;;;8.60;;
5871;SDS011;2962;51.312;7.378;2022-10-31T01:23:38;21.90;;;8.80;;
5871;SDS011;2962;51.312;7.378;2022-10-31T01:26:15;16.40;;;7.87;;
5871;SDS011;2962;51.312;7.378;2022-10-31T01:28:54;21.43;;;7.77;;
5871;SDS011;2962;51.312;7.378;2022-10-31T01:31:22;14.93;;;8.10;;
5871;SDS011;2962;51.312;7.378;2022-10-31T01:33:50;9.60;;;7.30;;
5871;SDS011;2962;51.312;7.378;2022-10-31T01:38:48;15.57;;;8.00;;
5871;SDS011;2962;51.312;7.378;2022-10-31T01:41:19;13.67;;;7.83;;
5871;SDS011;2962;51.312;7.378;2022-10-31T01:43:50;15.30;;;6.93;;
5871;SDS011;2962;51.312;7.378;2022-10-31T01:46:28;18.00;;;7.90;;
5871;SDS011;2962;51.312;7.378;2022-10-31T01:48:58;11.80;;;7.00;;
5871;SDS011;2962;51.312;7.378;2022-10-31T01:51:28;18.10;;;7.40;;
5871;SDS011;2962;51.312;7.378;2022-10-31T01:53:58;15.10;;;7.93;;
5871;SDS011;2962;51.312;7.378;2022-10-31T01:56:28;17.47;;;8.43;;
5871;SDS011;2962;51.312;7.378;2022-10-31T01:58:54;21.03;;;8.50;;
5871;SDS011;2962;51.312;7.378;2022-10-31T02:01:22;20.13;;;10.10;;
5871;SDS011;2962;51.312;7.378;2022-10-31T02:03:47;13.23;;;9.70;;
5871;SDS011;2962;51.312;7.378;2022-10-31T02:06:18;23.33;;;10.73;;
5871;SDS011;2962;51.312;7.378;2022-10-31T02:08:51;25.77;;;10.87;;
5871;SDS011;2962;51.312;7.378;2022-10-31T02:11:18;14.70;;;9.53;;
5871;SDS011;2962;51.312;7.378;2022-10-31T02:13:43;16.23;;;9.23;;
5871;SDS011;2962;51.312;7.378;2022-10-31T02:16:09;20.10;;;10.63;;
5871;SDS011;2962;51.312;7.378;2022-10-31T02:18:34;24.23;;;11.13;;
5871;SDS011;2962;51.312;7.378;2022-10-31T02:32:33;18.80;;;10.40;;
5871;SDS011;2962;51.312;7.378;2022-10-31T02:35:16;16.00;;;10.90;;
5871;SDS011;2962;51.312;7.378;2022-10-31T02:38:00;23.20;;;11.90;;
5871;SDS011;2962;51.312;7.378;2022-10-31T02:43:39;20.10;;;11.13;;
5871;SDS011;2962;51.312;7.378;2022-10-31T02:46:27;19.30;;;11.20;;
5871;SDS011;2962;51.312;7.378;2022-10-31T02:49:00;21.50;;;11.50;;
5871;SDS011;2962;51.312;7.378;2022-10-31T02:51:41;23.87;;;10.70;;
5871;SDS011;2962;51.312;7.378;2022-10-31T02:54:24;23.23;;;11.07;;
5871;SDS011;2962;51.312;7.378;2022-10-31T02:56:57;18.13;;;11.77;;
5871;SDS011;2962;51.312;7.378;2022-10-31T02:59:28;24.47;;;13.43;;
5871;SDS011;2962;51.312;7.378;2022-10-31T03:02:06;33.03;;;14.03;;
5871;SDS011;2962;51.312;7.378;2022-10-31T03:04:45;25.73;;;14.97;;
5871;SDS011;2962;51.312;7.378;2022-10-31T03:12:48;35.20;;;17.20;;
5871;SDS011;2962;51.312;7.378;2022-10-31T03:15:27;29.67;;;16.87;;
5871;SDS011;2962;51.312;7.378;2022-10-31T03:18:01;31.80;;;17.70;;
5871;SDS011;2962;51.312;7.378;2022-10-31T03:20:34;33.03;;;16.50;;
5871;SDS011;2962;51.312;7.378;2022-10-31T03:23:04;35.20;;;18.87;;
5871;SDS011;2962;51.312;7.378;2022-10-31T03:25:35;34.37;;;19.83;;
5871;SDS011;2962;51.312;7.378;2022-10-31T03:28:02;38.10;;;20.00;;
5871;SDS011;2962;51.312;7.378;2022-10-31T03:30:30;29.80;;;19.27;;
5871;SDS011;2962;51.312;7.378;2022-10-31T03:33:00;41.43;;;21.27;;
5871;SDS011;2962;51.312;7.378;2022-10-31T03:35:29;42.10;;;20.67;;
5871;SDS011;2962;51.312;7.378;2022-10-31T03:37:55;45.37;;;22.53;;
5871;SDS011;2962;51.312;7.378;2022-10-31T03:40:22;47.50;;;21.47;;
5871;SDS011;2962;51.312;7.378;2022-10-31T03:42:52;39.67;;;20.87;;
5871;SDS011;2962;51.312;7.378;2022-10-31T03:45:26;42.23;;;20.27;;
5871;SDS011;2962;51.312;7.378;2022-10-31T03:47:54;44.90;;;19.30;;
5871;SDS011;2962;51.312;7.378;2022-10-31T03:50:21;38.90;;;19.77;;
5871;SDS011;2962;51.312;7.378;2022-10-31T03:52:55;39.80;;;18.67;;
5871;SDS011;2962;51.312;7.378;2022-10-31T03:55:29;42.97;;;18.87;;
5871;SDS011;2962;51.312;7.378;2022-10-31T03:57:57;38.13;;;19.40;;
5871;SDS011;2962;51.312;7.378;2022-10-31T04:00:27;38.90;;;19.80;;
5871;SDS011;2962;51.312;7.378;2022-10-31T04:02:59;37.90;;;18.80;;
5871;SDS011;2962;51.312;7.378;2022-10-31T04:05:28;27.13;;;16.67;;
5871;SDS011;2962;51.312;7.378;2022-10-31T04:07:55;34.63;;;16.17;;
5871;SDS011;2962;51.312;7.378;2022-10-31T04:10:23;31.90;;;16.77;;
5871;SDS011;2962;51.312;7.378;2022-10-31T04:12:52;26.93;;;15.73;;
5871;SDS011;2962;51.312;7.378;2022-10-31T04:15:31;30.73;;;16.80;;
5871;SDS011;2962;51.312;7.378;2022-10-31T04:17:59;28.53;;;17.23;;
5871;SDS011;2962;51.312;7.378;2022-10-31T04:20:30;33.30;;;17.37;;
5871;SDS011;2962;51.312;7.378;2022-10-31T04:23:03;36.33;;;19.80;;
5871;SDS011;2962;51.312;7.378;2022-10-31T04:25:29;36.80;;;20.77;;
5871;SDS011;2962;51.312;7.378;2022-10-31T04:27:54;38.70;;;20.60;;
5871;SDS011;2962;51.312;7.378;2022-10-31T04:30:20;54.03;;;20.27;;
5871;SDS011;2962;51.312;7.378;2022-10-31T04:32:46;48.27;;;20.70;;
5871;SDS011;2962;51.312;7.378;2022-10-31T04:35:11;35.73;;;20.60;;
5871;SDS011;2962;51.312;7.378;2022-10-31T04:37:36;47.90;;;21.40;;
5871;SDS011;2962;51.312;7.378;2022-10-31T04:40:02;45.97;;;23.00;;
5871;SDS011;2962;51.312;7.378;2022-10-31T04:42:29;44.70;;;22.10;;
5871;SDS011;2962;51.312;7.378;2022-10-31T04:44:55;36.87;;;20.60;;
5871;SDS011;2962;51.312;7.378;2022-10-31T04:47:20;42.13;;;21.43;;
5871;SDS011;2962;51.312;7.378;2022-10-31T04:49:45;48.70;;;21.60;;
5871;SDS011;2962;51.312;7.378;2022-10-31T04:52:11;50.70;;;22.63;;
5871;SDS011;2962;51.312;7.378;2022-10-31T04:54:36;39.67;;;21.90;;
5871;SDS011;2962;51.312;7.378;2022-10-31T04:57:01;46.20;;;21.67;;
5871;SDS011;2962;51.312;7.378;2022-10-31T04:59:26;35.83;;;21.67;;
5871;SDS011;2962;51.312;7.378;2022-10-31T05:01:52;40.90;;;21.00;;
5871;SDS011;2962;51.312;7.378;2022-10-31T05:04:17;48.73;;;22.40;;
5871;SDS011;2962;51.312;7.378;2022-10-31T05:06:42;49.23;;;22.20;;
5871;SDS011;2962;51.312;7.378;2022-10-31T05:09:08;35.83;;;19.83;;
5871;SDS011;2962;51.312;7.378;2022-10-31T05:11:33;42.53;;;21.20;;
5871;SDS011;2962;51.312;7.378;2022-10-31T05:13:58;42.37;;;23.40;;
5871;SDS011;2962;51.312;7.378;2022-10-31T05:16:23;38.50;;;21.27;;
5871;SDS011;2962;51.312;7.378;2022-10-31T05:18:49;48.53;;;23.00;;
5871;SDS011;2962;51.312;7.378;2022-10-31T05:21:14;49.60;;;22.20;;
5871;SDS011;2962;51.312;7.378;2022-10-31T05:23:39;48.63;;;23.07;;
5871;SDS011;2962;51.312;7.378;2022-10-31T05:26:04;44.87;;;23.30;;
5871;SDS011;2962;51.312;7.378;2022-10-31T05:28:30;50.77;;;23.10;;
5871;SDS011;2962;51.312;7.378;2022-10-31T05:30:55;51.13;;;22.50;;
5871;SDS011;2962;51.312;7.378;2022-10-31T05:33:20;47.30;;;22.90;;
5871;SDS011;2962;51.312;7.378;2022-10-31T05:35:45;48.43;;;22.90;;
5871;SDS011;2962;51.312;7.378;2022-10-31T05:38:11;47.80;;;22.93;;
5871;SDS011;2962;51.312;7.378;2022-10-31T05:40:36;44.70;;;22.87;;
5871;SDS011;2962;51.312;7.378;2022-10-31T05:43:01;46.00;;;24.20;;
5871;SDS011;2962;51.312;7.378;2022-10-31T05:45:27;47.80;;;23.60;;
5871;SDS011;2962;51.312;7.378;2022-10-31T05:47:53;45.90;;;24.23;;
5871;SDS011;2962;51.312;7.378;2022-10-31T05:50:19;61.60;;;24.07;;
5871;SDS011;2962;51.312;7.378;2022-10-31T05:52:45;55.27;;;24.70;;
5871;SDS011;2962;51.312;7.378;2022-10-31T05:55:11;55.30;;;25.60;;
5871;SDS011;2962;51.312;7.378;2022-10-31T05:57:36;56.60;;;27.07;;
5871;SDS011;2962;51.312;7.378;2022-10-31T06:00:02;63.73;;;26.37;;
5871;SDS011;2962;51.312;7.378;2022-10-31T06:02:29;52.60;;;26.13;;
5871;SDS011;2962;51.312;7.378;2022-10-31T06:04:59;58.67;;;24.90;;
5871;SDS011;2962;51.312;7.378;2022-10-31T06:07:24;62.30;;;27.97;;
5871;SDS011;2962;51.312;7.378;2022-10-31T06:09:49;67.07;;;26.33;;
5871;SDS011;2962;51.312;7.378;2022-10-31T06:12:15;57.70;;;25.80;;
5871;SDS011;2962;51.312;7.378;2022-10-31T06:14:40;58.03;;;26.20;;
5871;SDS011;2962;51.312;7.378;2022-10-31T06:17:05;55.63;;;25.90;;
5871;SDS011;2962;51.312;7.378;2022-10-31T06:19:30;64.83;;;26.97;;
5871;SDS011;2962;51.312;7.378;2022-10-31T06:21:56;57.63;;;25.17;;
5871;SDS011;2962;51.312;7.378;2022-10-31T06:24:21;57.67;;;25.43;;
5871;SDS011;2962;51.312;7.378;2022-10-31T06:26:46;67.90;;;27.23;;
5871;SDS011;2962;51.312;7.378;2022-10-31T06:29:11;68.17;;;26.37;;
5871;SDS011;2962;51.312;7.378;2022-10-31T06:31:37;66.10;;;26.23;;
5871;SDS011;2962;51.312;7.378;2022-10-31T06:34:02;74.17;;;27.17;;
5871;SDS011;2962;51.312;7.378;2022-10-31T06:36:27;69.10;;;27.27;;
5871;SDS011;2962;51.312;7.378;2022-10-31T06:38:52;56.97;;;26.47;;
5871;SDS011;2962;51.312;7.378;2022-10-31T06:41:18;62.60;;;24.67;;
5871;SDS011;2962;51.312;7.378;2022-10-31T06:43:45;55.07;;;24.37;;
5871;SDS011;2962;51.312;7.378;2022-10-31T06:46:11;60.70;;;27.83;;
5871;SDS011;2962;51.312;7.378;2022-10-31T06:48:37;61.30;;;26.03;;
5871;SDS011;2962;51.312;7.378;2022-10-31T06:51:02;55.70;;;24.87;;
5871;SDS011;2962;51.312;7.378;2022-10-31T06:53:27;60.50;;;26.83;;
5871;SDS011;2962;51.312;7.378;2022-10-31T06:55:55;58.97;;;26.00;;
5871;SDS011;2962;51.312;7.378;2022-10-31T06:58:21;54.87;;;26.20;;
5871;SDS011;2962;51.312;7.378;2022-10-31T07:00:46;57.53;;;24.00;;
5871;SDS011;2962;51.312;7.378;2022-10-31T07:03:12;59.93;;;25.50;;
5871;SDS011;2962;51.312;7.378;2022-10-31T07:05:38;69.33;;;25.83;;
5871;SDS011;2962;51.312;7.378;2022-10-31T07:08:05;57.73;;;25.30;;
5871;SDS011;2962;51.312;7.378;2022-10-31T07:10:34;58.83;;;24.13;;
5871;SDS011;2962;51.312;7.378;2022-10-31T07:13:01;56.47;;;23.57;;
5871;SDS011;2962;51.312;7.378;2022-10-31T07:15:29;48.60;;;23.63;;
5871;SDS011;2962;51.312;7.378;2022-10-31T07:18:01;52.63;;;23.40;;
5871;SDS011;2962;51.312;7.378;2022-10-31T07:20:28;54.17;;;23.30;;
5871;SDS011;2962;51.312;7.378;2022-10-31T07:22:53;49.77;;;23.30;;
5871;SDS011;2962;51.312;7.378;2022-10-31T07:25:19;42.83;;;22.77;;
5871;SDS011;2962;51.312;7.378;2022-10-31T07:27:44;54.87;;;23.37;;
5871;SDS011;2962;51.312;7.378;2022-10-31T07:30:10;45.83;;;23.60;;
5871;SDS011;2962;51.312;7.378;2022-10-31T07:32:38;47.20;;;23.00;;
5871;SDS011;2962;51.312;7.378;2022-10-31T07:35:08;39.30;;;21.60;;
5871;SDS011;2962;51.312;7.378;2022-10-31T07:37:35;52.77;;;23.77;;
5871;SDS011;2962;51.312;7.378;2022-10-31T07:40:02;48.10;;;23.07;;
5871;SDS011;2962;51.312;7.378;2022-10-31T07:42:28;44.53;;;22.57;;
5871;SDS011;2962;51.312;7.378;2022-10-31T07:44:53;46.50;;;21.10;;
5871;SDS011;2962;51.312;7.378;2022-10-31T07:47:18;41.73;;;22.33;;
5871;SDS011;2962;51.312;7.378;2022-10-31T07:49:44;37.97;;;19.93;;
5871;SDS011;2962;51.312;7.378;2022-10-31T07:52:09;44.83;;;20.13;;
5871;SDS011;2962;51.312;7.378;2022-10-31T07:54:34;48.37;;;22.70;;
5871;SDS011;2962;51.312;7.378;2022-10-31T07:56:59;52.07;;;29.50;;
5871;SDS011;2962;51.312;7.378;2022-10-31T07:59:25;40.17;;;20.70;;
5871;SDS011;2962;51.312;7.378;2022-10-31T08:01:50;35.67;;;19.73;;
5871;SDS011;2962;51.312;7.378;2022-10-31T08:04:16;39.53;;;19.10;;
5871;SDS011;2962;51.312;7.378;2022-10-31T08:06:41;33.47;;;19.20;;
5871;SDS011;2962;51.312;7.378;2022-10-31T08:09:06;31.53;;;17.70;;
5871;SDS011;2962;51.312;7.378;2022-10-31T08:11:31;37.20;;;19.07;;
5871;SDS011;2962;51.312;7.378;2022-10-31T08:13:57;32.40;;;17.70;;
5871;SDS011;2962;51.312;7.378;2022-10-31T08:16:22;39.53;;;18.90;;
5871;SDS011;2962;51.312;7.378;2022-10-31T08:18:47;33.53;;;17.37;;
5871;SDS011;2962;51.312;7.378;2022-10-31T08:21:12;36.97;;;18.43;;
5871;SDS011;2962;51.312;7.378;2022-10-31T08:23:38;47.87;;;19.00;;
5871;SDS011;2962;51.312;7.378;2022-10-31T08:26:03;32.50;;;18.87;;
5871;SDS011;2962;51.312;7.378;2022-10-31T08:28:30;35.73;;;19.67;;
5871;SDS011;2962;51.312;7.378;2022-10-31T08:30:57;39.20;;;18.70;;
5871;SDS011;2962;51.312;7.378;2022-10-31T08:33:22;43.17;;;19.30;;
5871;SDS011;2962;51.312;7.378;2022-10-31T08:35:47;37.67;;;19.50;;
5871;SDS011;2962;51.312;7.378;2022-10-31T08:38:13;37.30;;;18.67;;
5871;SDS011;2962;51.312;7.378;2022-10-31T08:40:39;42.40;;;18.00;;
5871;SDS011;2962;51.312;7.378;2022-10-31T08:43:12;39.23;;;18.73;;
5871;SDS011;2962;51.312;7.378;2022-10-31T08:45:38;39.33;;;18.50;;
5871;SDS011;2962;51.312;7.378;2022-10-31T08:48:05;36.43;;;18.03;;
5871;SDS011;2962;51.312;7.378;2022-10-31T08:50:33;36.10;;;20.97;;
5871;SDS011;2962;51.312;7.378;2022-10-31T08:53:03;33.80;;;18.90;;
5871;SDS011;2962;51.312;7.378;2022-10-31T08:55:29;38.60;;;18.43;;
5871;SDS011;2962;51.312;7.378;2022-10-31T08:57:56;36.47;;;18.23;;
5871;SDS011;2962;51.312;7.378;2022-10-31T09:00:22;35.83;;;18.27;;
5871;SDS011;2962;51.312;7.378;2022-10-31T09:02:48;31.83;;;17.93;;
5871;SDS011;2962;51.312;7.378;2022-10-31T09:05:19;30.47;;;17.83;;
5871;SDS011;2962;51.312;7.378;2022-10-31T09:07:44;31.77;;;17.10;;
5871;SDS011;2962;51.312;7.378;2022-10-31T09:10:09;37.33;;;17.50;;
5871;SDS011;2962;51.312;7.378;2022-10-31T09:12:34;33.60;;;16.30;;
5871;SDS011;2962;51.312;7.378;2022-10-31T09:15:00;34.93;;;16.00;;
5871;SDS011;2962;51.312;7.378;2022-10-31T09:17:26;38.20;;;17.47;;
5871;SDS011;2962;51.312;7.378;2022-10-31T09:19:52;36.83;;;15.43;;
5871;SDS011;2962;51.312;7.378;2022-10-31T09:22:17;26.63;;;15.43;;
5871;SDS011;2962;51.312;7.378;2022-10-31T09:24:42;26.63;;;14.43;;
5871;SDS011;2962;51.312;7.378;2022-10-31T09:27:07;31.40;;;16.20;;
5871;SDS011;2962;51.312;7.378;2022-10-31T09:29:33;28.17;;;14.17;;
5871;SDS011;2962;51.312;7.378;2022-10-31T09:31:59;37.67;;;12.97;;
5871;SDS011;2962;51.312;7.378;2022-10-31T09:34:24;21.53;;;12.53;;
5871;SDS011;2962;51.312;7.378;2022-10-31T09:36:49;27.53;;;12.93;;
5871;SDS011;2962;51.312;7.378;2022-10-31T09:39:15;20.83;;;11.90;;
5871;SDS011;2962;51.312;7.378;2022-10-31T09:41:59;19.97;;;11.90;;
5871;SDS011;2962;51.312;7.378;2022-10-31T09:50:15;21.40;;;10.73;;
5871;SDS011;2962;51.312;7.378;2022-10-31T09:53:02;28.90;;;11.97;;
5871;SDS011;2962;51.312;7.378;2022-10-31T09:55:31;20.70;;;11.27;;
5871;SDS011;2962;51.312;7.378;2022-10-31T09:58:02;18.43;;;10.80;;
5871;SDS011;2962;51.312;7.378;2022-10-31T10:00:28;19.97;;;10.10;;
5871;SDS011;2962;51.312;7.378;2022-10-31T10:05:54;14.07;;;8.37;;
5871;SDS011;2962;51.312;7.378;2022-10-31T10:08:25;16.10;;;8.80;;
5871;SDS011;2962;51.312;7.378;2022-10-31T10:10:59;11.50;;;7.73;;
5871;SDS011;2962;51.312;7.378;2022-10-31T10:16:09;15.90;;;8.30;;
5871;SDS011;2962;51.312;7.378;2022-10-31T10:18:55;18.10;;;7.90;;
5871;SDS011;2962;51.312;7.378;2022-10-31T10:21:25;12.73;;;7.80;;
5871;SDS011;2962;51.312;7.378;2022-10-31T10:27:27;11.80;;;7.90;;
5871;SDS011;2962;51.312;7.378;2022-10-31T10:29:37;23.07;;;7.57;;
5871;SDS011;2962;51.312;7.378;2022-10-31T10:32:25;9.87;;;6.20;;
5871;SDS011;2962;51.312;7.378;2022-10-31T10:34:55;9.93;;;6.53;;
5871;SDS011;2962;51.312;7.378;2022-10-31T10:37:42;11.37;;;6.67;;
5871;SDS011;2962;51.312;7.378;2022-10-31T10:40:19;9.37;;;6.20;;
5871;SDS011;2962;51.312;7.378;2022-10-31T10:49:12;8.80;;;5.10;;
5871;SDS011;2962;51.312;7.378;2022-10-31T10:51:44;11.90;;;5.70;;
5871;SDS011;2962;51.312;7.378;2022-10-31T10:54:43;12.03;;;5.60;;
5871;SDS011;2962;51.312;7.378;2022-10-31T10:57:27;11.40;;;5.50;;
5871;SDS011;2962;51.312;7.378;2022-10-31T11:00:12;9.73;;;5.40;;
5871;SDS011;2962;51.312;7.378;2022-10-31T11:02:43;10.50;;;5.90;;
5871;SDS011;2962;51.312;7.378;2022-10-31T11:05:13;4.83;;;4.30;;
5871;SDS011;2962;51.312;7.378;2022-10-31T11:07:45;14.70;;;5.50;;
5871;SDS011;2962;51.312;7.378;2022-10-31T11:10:14;12.17;;;5.13;;
5871;SDS011;2962;51.312;7.378;2022-10-31T11:12:42;11.40;;;4.60;;
5871;SDS011;2962;51.312;7.378;2022-10-31T11:15:17;15.47;;;5.10;;
5871;SDS011;2962;51.312;7.378;2022-10-31T11:17:47;5.13;;;4.47;;
5871;SDS011;2962;51.312;7.378;2022-10-31T11:22:41;5.97;;;4.17;;
5871;SDS011;2962;51.312;7.378;2022-10-31T11:25:19;10.10;;;4.03;;
5871;SDS011;2962;51.312;7.378;2022-10-31T11:27:45;15.90;;;5.27;;
5871;SDS011;2962;51.312;7.378;2022-10-31T11:30:12;9.00;;;4.60;;
5871;SDS011;2962;51.312;7.378;2022-10-31T11:32:41;8.00;;;5.33;;
5871;SDS011;2962;51.312;7.378;2022-10-31T11:35:12;12.03;;;4.87;;
5871;SDS011;2962;51.312;7.378;2022-10-31T11:37:42;10.60;;;5.40;;
5871;SDS011;2962;51.312;7.378;2022-10-31T11:40:18;7.70;;;4.60;;
5871;SDS011;2962;51.312;7.378;2022-10-31T11:42:45;10.30;;;4.80;;
5871;SDS011;2962;51.312;7.378;2022-10-31T11:45:25;10.73;;;3.93;;
5871;SDS011;2962;51.312;7.378;2022-10-31T11:47:54;17.63;;;4.80;;
5871;SDS011;2962;51.312;7.378;2022-10-31T11:50:26;6.77;;;4.13;;
5871;SDS011;2962;51.312;7.378;2022-10-31T11:52:56;6.00;;;4.20;;
5871;SDS011;2962;51.312;7.378;2022-10-31T11:57:57;7.00;;;4.10;;
5871;SDS011;2962;51.312;7.378;2022-10-31T12:00:24;9.37;;;4.50;;
5871;SDS011;2962;51.312;7.378;2022-10-31T12:08:30;9.63;;;4.00;;
5871;SDS011;2962;51.312;7.378;2022-10-31T12:11:10;6.60;;;4.03;;
5871;SDS011;2962;51.312;7.378;2022-10-31T12:16:20;6.70;;;4.30;;
5871;SDS011;2962;51.312;7.378;2022-10-31T12:18:58;11.20;;;4.90;;
5871;SDS011;2962;51.312;7.378;2022-10-31T12:24:37;16.27;;;4.77;;
5871;SDS011;2962;51.312;7.378;2022-10-31T12:29:52;9.93;;;4.60;;
5871;SDS011;2962;51.312;7.378;2022-10-31T12:46:15;10.10;;;4.40;;
5871;SDS011;2962;51.312;7.378;2022-10-31T12:49:04;15.80;;;4.70;;
5871;SDS011;2962;51.312;7.378;2022-10-31T12:54:38;6.27;;;4.63;;
5871;SDS011;2962;51.312;7.378;2022-10-31T13:00:01;10.53;;;4.37;;
5871;SDS011;2962;51.312;7.378;2022-10-31T13:02:35;13.90;;;5.00;;
5871;SDS011;2962;51.312;7.378;2022-10-31T13:07:48;10.30;;;4.97;;
5871;SDS011;2962;51.312;7.378;2022-10-31T13:10:25;6.27;;;5.00;;
5871;SDS011;2962;51.312;7.378;2022-10-31T13:13:07;9.53;;;4.60;;
5871;SDS011;2962;51.312;7.378;2022-10-31T13:15:48;8.10;;;4.83;;
5871;SDS011;2962;51.312;7.378;2022-10-31T13:18:21;13.33;;;5.17;;
5871;SDS011;2962;51.312;7.378;2022-10-31T13:20:52;11.33;;;5.53;;
5871;SDS011;2962;51.312;7.378;2022-10-31T13:23:29;14.03;;;6.50;;
5871;SDS011;2962;51.312;7.378;2022-10-31T13:25:58;15.23;;;5.70;;
5871;SDS011;2962;51.312;7.378;2022-10-31T13:28:35;6.27;;;4.63;;
5871;SDS011;2962;51.312;7.378;2022-10-31T13:31:05;11.57;;;4.90;;
5871;SDS011;2962;51.312;7.378;2022-10-31T13:33:33;11.47;;;5.37;;
5871;SDS011;2962;51.312;7.378;2022-10-31T13:36:06;14.93;;;5.93;;
5871;SDS011;2962;51.312;7.378;2022-10-31T13:38:48;11.60;;;5.13;;
5871;SDS011;2962;51.312;7.378;2022-10-31T13:41:22;14.50;;;5.63;;
5871;SDS011;2962;51.312;7.378;2022-10-31T13:43:59;11.20;;;5.93;;
5871;SDS011;2962;51.312;7.378;2022-10-31T13:48:58;13.50;;;5.30;;
5871;SDS011;2962;51.312;7.378;2022-10-31T13:51:29;15.60;;;5.67;;
5871;SDS011;2962;51.312;7.378;2022-10-31T13:56:40;13.00;;;5.77;;
5871;SDS011;2962;51.312;7.378;2022-10-31T14:01:33;28.60;;;6.00;;
5871;SDS011;2962;51.312;7.378;2022-10-31T14:04:01;12.30;;;5.30;;
5871;SDS011;2962;51.312;7.378;2022-10-31T14:06:40;9.43;;;5.13;;
5871;SDS011;2962;51.312;7.378;2022-10-31T14:09:28;16.57;;;5.97;;
5871;SDS011;2962;51.312;7.378;2022-10-31T14:11:54;9.30;;;4.37;;
5871;SDS011;2962;51.312;7.378;2022-10-31T14:14:23;15.40;;;6.27;;
5871;SDS011;2962;51.312;7.378;2022-10-31T14:16:56;15.93;;;5.97;;
5871;SDS011;2962;51.312;7.378;2022-10-31T14:19:23;12.43;;;5.73;;
5871;SDS011;2962;51.312;7.378;2022-10-31T14:21:49;9.37;;;5.70;;
5871;SDS011;2962;51.312;7.378;2022-10-31T14:24:37;9.87;;;5.47;;
5871;SDS011;2962;51.312;7.378;2022-10-31T14:27:35;10.37;;;5.23;;
5871;SDS011;2962;51.312;7.378;2022-10-31T14:29:49;13.67;;;5.63;;
5871;SDS011;2962;51.312;7.378;2022-10-31T14:32:19;13.90;;;5.70;;
5871;SDS011;2962;51.312;7.378;2022-10-31T14:43:31;12.97;;;4.70;;
5871;SDS011;2962;51.312;7.378;2022-10-31T14:46:32;6.40;;;5.53;;
5871;SDS011;2962;51.312;7.378;2022-10-31T14:51:48;11.90;;;6.07;;
5871;SDS011;2962;51.312;7.378;2022-10-31T14:54:20;8.30;;;4.93;;
5871;SDS011;2962;51.312;7.378;2022-10-31T14:56:53;11.70;;;5.57;;
5871;SDS011;2962;51.312;7.378;2022-10-31T14:59:26;10.50;;;4.90;;
5871;SDS011;2962;51.312;7.378;2022-10-31T15:01:57;8.47;;;4.50;;
5871;SDS011;2962;51.312;7.378;2022-10-31T15:04:26;9.03;;;4.40;;
5871;SDS011;2962;51.312;7.378;2022-10-31T15:07:16;9.40;;;5.17;;
5871;SDS011;2962;51.312;7.378;2022-10-31T15:09:45;11.27;;;4.57;;
5871;SDS011;2962;51.312;7.378;2022-10-31T15:12:31;13.00;;;5.00;;
5871;SDS011;2962;51.312;7.378;2022-10-31T15:15:09;10.93;;;4.33;;
5871;SDS011;2962;51.312;7.378;2022-10-31T15:17:36;11.57;;;4.37;;
5871;SDS011;2962;51.312;7.378;2022-10-31T15:20:17;13.33;;;4.90;;
5871;SDS011;2962;51.312;7.378;2022-10-31T15:22:45;15.43;;;3.63;;
5871;SDS011;2962;51.312;7.378;2022-10-31T15:25:18;10.23;;;3.47;;
5871;SDS011;2962;51.312;7.378;2022-10-31T15:27:47;6.70;;;3.57;;
5871;SDS011;2962;51.312;7.378;2022-10-31T15:30:18;4.90;;;3.30;;
5871;SDS011;2962;51.312;7.378;2022-10-31T15:32:48;10.67;;;4.13;;
5871;SDS011;2962;51.312;7.378;2022-10-31T15:35:27;10.83;;;3.83;;
5871;SDS011;2962;51.312;7.378;2022-10-31T15:37:54;14.00;;;3.83;;
5871;SDS011;2962;51.312;7.378;2022-10-31T15:40:21;5.70;;;3.20;;
5871;SDS011;2962;51.312;7.378;2022-10-31T15:42:53;8.50;;;3.87;;
5871;SDS011;2962;51.312;7.378;2022-10-31T15:45:22;4.70;;;3.50;;
5871;SDS011;2962;51.312;7.378;2022-10-31T15:50:29;7.37;;;3.50;;
5871;SDS011;2962;51.312;7.378;2022-10-31T15:53:10;6.97;;;3.50;;
5871;SDS011;2962;51.312;7.378;2022-10-31T15:55:49;4.93;;;3.17;;
5871;SDS011;2962;51.312;7.378;2022-10-31T15:58:17;12.43;;;3.60;;
5871;SDS011;2962;51.312;7.378;2022-10-31T16:00:43;9.03;;;3.30;;
5871;SDS011;2962;51.312;7.378;2022-10-31T16:08:34;7.70;;;3.80;;
5871;SDS011;2962;51.312;7.378;2022-10-31T16:13:31;8.83;;;3.40;;
5871;SDS011;2962;51.312;7.378;2022-10-31T16:15:59;5.87;;;3.07;;
5871;SDS011;2962;51.312;7.378;2022-10-31T16:18:27;6.60;;;3.17;;
5871;SDS011;2962;51.312;7.378;2022-10-31T16:21:00;8.43;;;3.07;;
5871;SDS011;2962;51.312;7.378;2022-10-31T16:23:25;12.23;;;3.77;;
5871;SDS011;2962;51.312;7.378;2022-10-31T16:25:52;5.17;;;3.43;;
5871;SDS011;2962;51.312;7.378;2022-10-31T16:28:21;12.53;;;9.47;;
5871;SDS011;2962;51.312;7.378;2022-10-31T16:30:49;8.10;;;4.07;;
5871;SDS011;2962;51.312;7.378;2022-10-31T16:33:29;4.50;;;2.73;;
5871;SDS011;2962;51.312;7.378;2022-10-31T16:35:58;4.33;;;3.20;;
5871;SDS011;2962;51.312;7.378;2022-10-31T16:38:24;11.07;;;3.43;;
5871;SDS011;2962;51.312;7.378;2022-10-31T16:40:50;5.43;;;3.33;;
5871;SDS011;2962;51.312;7.378;2022-10-31T16:43:17;5.27;;;3.60;;
5871;SDS011;2962;51.312;7.378;2022-10-31T16:45:45;8.60;;;5.30;;
5871;SDS011;2962;51.312;7.378;2022-10-31T16:48:20;6.73;;;2.93;;
5871;SDS011;2962;51.312;7.378;2022-10-31T16:50:47;6.53;;;3.07;;
5871;SDS011;2962;51.312;7.378;2022-10-31T16:53:14;13.83;;;3.70;;
5871;SDS011;2962;51.312;7.378;2022-10-31T16:58:29;17.53;;;9.27;;
5871;SDS011;2962;51.312;7.378;2022-10-31T17:00:57;13.63;;;3.80;;
5871;SDS011;2962;51.312;7.378;2022-10-31T17:03:23;6.17;;;3.80;;
5871;SDS011;2962;51.312;7.378;2022-10-31T17:05:48;8.97;;;3.27;;
5871;SDS011;2962;51.312;7.378;2022-10-31T17:08:14;5.57;;;2.57;;